createdAt,value
2018-09-28T00:00:38.067Z,13.31
2018-09-28T00:01:38.309Z,13.33
2018-09-28T00:02:38.048Z,13.28
2018-09-28T00:03:38.303Z,13.3
2018-09-28T00:04:38.067Z,13.27
2018-09-28T00:05:38.306Z,13.27
2018-09-28T00:06:38.291Z,13.35
2018-09-28T00:07:38.286Z,13.35
2018-09-28T00:08:37.798Z,13.33
2018-09-28T00:09:38.015Z,13.23
2018-09-28T00:10:37.756Z,13.23
2018-09-28T00:11:37.751Z,13.19
2018-09-28T00:12:37.748Z,13.13
2018-09-28T00:13:37.742Z,13.22
2018-09-28T00:14:38.022Z,13.2
2018-09-28T00:15:38.008Z,13.13
2018-09-28T00:16:37.985Z,13.22
2018-09-28T00:17:37.990Z,13.18
2018-09-28T00:18:38.013Z,13.19
2018-09-28T00:19:38.025Z,13.22
2018-09-28T00:20:38.254Z,13.2
2018-09-28T00:21:38.256Z,13.18
2018-09-28T00:22:38.232Z,13.13
2018-09-28T00:23:37.954Z,13.01
2018-09-28T00:24:37.698Z,13.03
2018-09-28T00:25:37.948Z,13.09
2018-09-28T00:26:37.962Z,13.05
2018-09-28T00:27:37.955Z,13.22
2018-09-28T00:28:37.951Z,13.22
2018-09-28T00:29:38.193Z,13.15
2018-09-28T00:30:38.184Z,13.13
2018-09-28T00:31:39.240Z,13.01
2018-09-28T00:32:38.181Z,13.01
2018-09-28T00:33:37.923Z,12.95
2018-09-28T00:34:38.178Z,12.93
2018-09-28T00:35:38.172Z,12.95
2018-09-28T00:36:37.905Z,12.87
2018-09-28T00:37:37.900Z,12.94
2018-09-28T00:38:37.905Z,12.98
2018-09-28T00:39:37.891Z,13.01
2018-09-28T00:40:37.879Z,12.98
2018-09-28T00:41:37.905Z,13.04
2018-09-28T00:42:38.143Z,13.01
2018-09-28T00:43:37.872Z,13
2018-09-28T00:44:37.883Z,13.09
2018-09-28T00:45:37.878Z,13
2018-09-28T00:46:37.856Z,13.04
2018-09-28T00:47:38.107Z,13.04
2018-09-28T00:48:37.858Z,13.04
2018-09-28T00:49:37.876Z,13.01
2018-09-28T00:50:38.128Z,13.03
2018-09-28T00:51:38.095Z,12.95
2018-09-28T00:52:38.107Z,13
2018-09-28T00:53:38.089Z,13.04
2018-09-28T00:54:37.616Z,13
2018-09-28T00:55:38.090Z,12.95
2018-09-28T00:56:38.081Z,12.97
2018-09-28T00:57:37.557Z,12.97
2018-09-28T00:58:37.556Z,12.95
2018-09-28T00:59:37.816Z,12.8
2018-09-28T01:00:38.062Z,12.86
2018-09-28T01:01:37.801Z,12.9
2018-09-28T01:02:37.793Z,12.79
2018-09-28T01:03:37.782Z,12.83
2018-09-28T01:04:37.522Z,12.8
2018-09-28T01:05:38.041Z,12.85
2018-09-28T01:06:37.518Z,12.86
2018-09-28T01:07:38.030Z,12.76
2018-09-28T01:08:37.773Z,12.78
2018-09-28T01:09:38.022Z,12.75
2018-09-28T01:10:37.550Z,12.64
2018-09-28T01:11:37.504Z,12.68
2018-09-28T01:12:37.775Z,12.68
2018-09-28T01:13:37.770Z,12.75
2018-09-28T01:14:37.746Z,12.68
2018-09-28T01:15:37.737Z,12.67
2018-09-28T01:16:37.758Z,12.72
2018-09-28T01:17:37.739Z,12.6
2018-09-28T01:18:37.734Z,12.72
2018-09-28T01:19:37.973Z,12.7
2018-09-28T01:20:37.969Z,12.75
2018-09-28T01:21:37.464Z,12.68
2018-09-28T01:22:37.969Z,12.7
2018-09-28T01:23:37.698Z,12.73
2018-09-28T01:24:37.466Z,12.72
2018-09-28T01:25:37.965Z,12.72
2018-09-28T01:26:37.698Z,12.65
2018-09-28T01:27:37.700Z,12.64
2018-09-28T01:28:37.936Z,12.7
2018-09-28T01:29:37.940Z,12.67
2018-09-28T01:30:37.946Z,12.65
2018-09-28T01:31:37.685Z,12.64
2018-09-28T01:32:37.671Z,12.62
2018-09-28T01:33:37.677Z,12.7
2018-09-28T01:34:37.921Z,12.61
2018-09-28T01:35:37.427Z,12.61
2018-09-28T01:36:37.664Z,12.64
2018-09-28T01:37:37.893Z,12.64
2018-09-28T01:38:37.639Z,12.6
2018-09-28T01:39:37.632Z,12.58
2018-09-28T01:40:37.886Z,12.53
2018-09-28T01:41:37.630Z,12.55
2018-09-28T01:42:37.889Z,12.54
2018-09-28T01:43:37.898Z,12.57
2018-09-28T01:44:37.613Z,12.5
2018-09-28T01:45:37.634Z,12.47
2018-09-28T01:46:37.378Z,12.5
2018-09-28T01:47:37.881Z,12.45
2018-09-28T01:48:37.356Z,12.53
2018-09-28T01:49:37.611Z,12.46
2018-09-28T01:50:37.862Z,12.53
2018-09-28T01:51:37.599Z,12.47
2018-09-28T01:52:37.841Z,12.47
2018-09-28T01:53:37.349Z,12.46
2018-09-28T01:54:37.328Z,12.5
2018-09-28T01:55:37.574Z,12.47
2018-09-28T01:56:37.838Z,12.54
2018-09-28T01:57:37.326Z,12.45
2018-09-28T01:58:37.573Z,12.5
2018-09-28T01:59:37.565Z,12.46
2018-09-28T02:00:37.331Z,12.53
2018-09-28T02:01:37.561Z,12.4
2018-09-28T02:02:37.811Z,12.47
2018-09-28T02:03:37.797Z,12.36
2018-09-28T02:04:37.793Z,12.45
2018-09-28T02:05:37.535Z,12.4
2018-09-28T02:06:37.533Z,12.5
2018-09-28T02:07:37.792Z,12.47
2018-09-28T02:08:37.786Z,12.49
2018-09-28T02:09:37.779Z,12.49
2018-09-28T02:10:37.547Z,12.53
2018-09-28T02:11:37.773Z,12.45
2018-09-28T02:12:38.019Z,12.47
2018-09-28T02:13:37.251Z,12.45
2018-09-28T02:14:37.657Z,12.55
2018-09-28T02:15:37.260Z,12.35
2018-09-28T02:16:37.508Z,12.4
2018-09-28T02:17:37.754Z,12.32
2018-09-28T02:18:37.488Z,12.35
2018-09-28T02:19:37.738Z,12.25
2018-09-28T02:20:37.851Z,12.35
2018-09-28T02:21:37.751Z,12.4
2018-09-28T02:22:37.466Z,12.29
2018-09-28T02:23:37.723Z,12.36
2018-09-28T02:24:37.718Z,12.25
2018-09-28T02:25:37.462Z,12.25
2018-09-28T02:26:37.200Z,12.18
2018-09-28T02:27:37.870Z,12.2
2018-09-28T02:28:37.507Z,12.18
2018-09-28T02:29:37.694Z,12.07
2018-09-28T02:30:37.739Z,12.17
2018-09-28T02:31:37.697Z,12.07
2018-09-28T02:32:37.718Z,12.09
2018-09-28T02:33:37.483Z,12.1
2018-09-28T02:34:37.463Z,12.12
2018-09-28T02:35:37.688Z,12.13
2018-09-28T02:36:37.158Z,12.03
2018-09-28T02:37:37.450Z,12.1
2018-09-28T02:38:37.688Z,12.09
2018-09-28T02:39:37.674Z,12.09
2018-09-28T02:40:37.418Z,12.04
2018-09-28T02:41:37.674Z,12.02
2018-09-28T02:42:37.408Z,12.02
2018-09-28T02:43:37.669Z,11.9
2018-09-28T02:44:37.658Z,11.9
2018-09-28T02:45:37.648Z,11.84
2018-09-28T02:46:37.127Z,11.84
2018-09-28T02:47:37.118Z,11.95
2018-09-28T02:48:37.394Z,11.97
2018-09-28T02:49:37.367Z,12.03
2018-09-28T02:50:37.629Z,12.02
2018-09-28T02:51:37.360Z,12.02
2018-09-28T02:52:37.116Z,12.02
2018-09-28T02:53:37.413Z,11.86
2018-09-28T02:54:37.107Z,11.94
2018-09-28T02:55:37.613Z,11.97
2018-09-28T02:56:37.092Z,12
2018-09-28T02:57:37.593Z,11.88
2018-09-28T02:58:37.589Z,11.91
2018-09-28T02:59:37.345Z,11.99
2018-09-28T03:00:37.588Z,11.99
2018-09-28T03:01:37.336Z,12.02
2018-09-28T03:02:37.318Z,12.04
2018-09-28T03:03:37.563Z,12
2018-09-28T03:04:37.567Z,12.07
2018-09-28T03:05:37.562Z,11.97
2018-09-28T03:06:37.305Z,11.99
2018-09-28T03:07:37.057Z,12.13
2018-09-28T03:08:37.297Z,12.12
2018-09-28T03:09:37.294Z,12.09
2018-09-28T03:10:37.564Z,12.1
2018-09-28T03:11:37.033Z,12.07
2018-09-28T03:12:37.277Z,12.17
2018-09-28T03:13:37.041Z,12.12
2018-09-28T03:14:37.274Z,12.07
2018-09-28T03:15:37.266Z,12.09
2018-09-28T03:16:37.537Z,12.02
2018-09-28T03:17:37.259Z,12.06
2018-09-28T03:18:37.507Z,12.02
2018-09-28T03:19:37.508Z,11.97
2018-09-28T03:20:37.513Z,11.95
2018-09-28T03:21:37.512Z,11.91
2018-09-28T03:22:37.001Z,11.9
2018-09-28T03:23:37.501Z,11.87
2018-09-28T03:24:37.229Z,11.88
2018-09-28T03:25:37.487Z,11.9
2018-09-28T03:26:37.005Z,11.91
2018-09-28T03:27:37.483Z,11.88
2018-09-28T03:28:37.214Z,11.83
2018-09-28T03:29:37.209Z,11.87
2018-09-28T03:30:37.208Z,11.84
2018-09-28T03:31:37.481Z,11.84
2018-09-28T03:32:36.963Z,11.9
2018-09-28T03:33:36.947Z,11.87
2018-09-28T03:34:37.450Z,11.73
2018-09-28T03:35:36.955Z,11.73
2018-09-28T03:36:37.256Z,11.77
2018-09-28T03:37:37.185Z,11.7
2018-09-28T03:38:37.432Z,11.77
2018-09-28T03:39:37.176Z,11.73
2018-09-28T03:40:37.671Z,11.73
2018-09-28T03:41:37.171Z,11.57
2018-09-28T03:42:36.928Z,11.55
2018-09-28T03:43:37.439Z,11.59
2018-09-28T03:44:37.429Z,11.54
2018-09-28T03:45:37.406Z,11.51
2018-09-28T03:46:37.411Z,11.55
2018-09-28T03:47:37.147Z,11.48
2018-09-28T03:48:37.140Z,11.57
2018-09-28T03:49:37.399Z,11.5
2018-09-28T03:50:36.887Z,11.55
2018-09-28T03:51:37.135Z,11.54
2018-09-28T03:52:37.121Z,11.59
2018-09-28T03:53:36.864Z,11.52
2018-09-28T03:54:36.873Z,11.5
2018-09-28T03:55:37.369Z,11.48
2018-09-28T03:56:37.359Z,11.5
2018-09-28T03:57:36.843Z,11.52
2018-09-28T03:58:37.369Z,11.55
2018-09-28T03:59:37.333Z,11.52
2018-09-28T04:00:37.096Z,11.51
2018-09-28T04:01:37.352Z,11.55
2018-09-28T04:02:37.086Z,11.55
2018-09-28T04:03:37.346Z,11.48
2018-09-28T04:04:37.322Z,11.51
2018-09-28T04:05:37.093Z,11.51
2018-09-28T04:06:37.315Z,11.52
2018-09-28T04:07:37.070Z,11.48
2018-09-28T04:08:37.300Z,11.59
2018-09-28T04:09:37.059Z,11.48
2018-09-28T04:10:36.803Z,11.51
2018-09-28T04:11:37.359Z,11.47
2018-09-28T04:12:37.052Z,11.52
2018-09-28T04:13:37.055Z,11.47
2018-09-28T04:14:37.282Z,11.44
2018-09-28T04:15:37.288Z,11.45
2018-09-28T04:16:37.268Z,11.41
2018-09-28T04:17:38.084Z,11.37
2018-09-28T04:18:37.295Z,11.37
2018-09-28T04:19:37.268Z,11.41
2018-09-28T04:20:36.999Z,11.27
2018-09-28T04:21:37.258Z,11.32
2018-09-28T04:22:37.001Z,11.35
2018-09-28T04:23:37.254Z,11.29
2018-09-28T04:24:37.276Z,11.32
2018-09-28T04:25:37.240Z,11.33
2018-09-28T04:26:36.994Z,11.36
2018-09-28T04:27:36.998Z,11.3
2018-09-28T04:28:36.973Z,11.32
2018-09-28T04:29:36.982Z,11.19
2018-09-28T04:30:36.963Z,11.35
2018-09-28T04:31:36.962Z,11.29
2018-09-28T04:32:37.246Z,11.32
2018-09-28T04:33:36.966Z,11.29
2018-09-28T04:34:37.177Z,11.22
2018-09-28T04:35:36.968Z,11.19
2018-09-28T04:36:37.174Z,11.07
2018-09-28T04:37:36.927Z,11.15
2018-09-28T04:38:37.165Z,11.05
2018-09-28T04:39:36.905Z,11
2018-09-28T04:40:37.145Z,11
2018-09-28T04:41:36.909Z,10.97
2018-09-28T04:42:36.890Z,11
2018-09-28T04:43:37.149Z,10.93
2018-09-28T04:44:37.151Z,10.99
2018-09-28T04:45:37.306Z,10.89
2018-09-28T04:46:37.120Z,11
2018-09-28T04:47:37.122Z,10.94
2018-09-28T04:48:37.127Z,10.94
2018-09-28T04:49:36.603Z,10.96
2018-09-28T04:50:37.113Z,10.97
2018-09-28T04:51:37.101Z,10.82
2018-09-28T04:52:37.088Z,10.9
2018-09-28T04:53:36.871Z,10.97
2018-09-28T04:54:37.092Z,10.99
2018-09-28T04:55:37.090Z,11.08
2018-09-28T04:56:37.083Z,11.1
2018-09-28T04:57:36.549Z,11.14
2018-09-28T04:58:36.824Z,11.17
2018-09-28T04:59:37.112Z,11.14
2018-09-28T05:00:36.782Z,11.14
2018-09-28T05:01:37.061Z,11.18
2018-09-28T05:02:37.063Z,11.05
2018-09-28T05:03:36.787Z,11.07
2018-09-28T05:04:37.043Z,11.08
2018-09-28T05:05:36.776Z,10.97
2018-09-28T05:06:37.033Z,10.96
2018-09-28T05:07:36.778Z,10.96
2018-09-28T05:08:37.014Z,10.94
2018-09-28T05:09:37.024Z,10.87
2018-09-28T05:10:36.739Z,10.96
2018-09-28T05:11:37.007Z,11
2018-09-28T05:12:37.003Z,10.97
2018-09-28T05:13:37.001Z,10.97
2018-09-28T05:14:36.734Z,10.96
2018-09-28T05:15:36.992Z,10.96
2018-09-28T05:16:36.986Z,11
2018-09-28T05:17:36.998Z,11.1
2018-09-28T05:18:36.966Z,11.11
2018-09-28T05:19:37.361Z,11.04
2018-09-28T05:20:36.708Z,11.15
2018-09-28T05:21:36.950Z,11.12
2018-09-28T05:22:36.682Z,11.14
2018-09-28T05:23:36.683Z,11.14
2018-09-28T05:24:36.953Z,11.22
2018-09-28T05:25:36.977Z,11.23
2018-09-28T05:26:36.684Z,11.25
2018-09-28T05:27:36.922Z,11.22
2018-09-28T05:28:36.916Z,11.3
2018-09-28T05:29:36.409Z,11.35
2018-09-28T05:30:44.968Z,11.29
2018-09-28T05:31:37.332Z,11.33
2018-09-28T05:32:37.833Z,11.29
2018-09-28T05:33:36.635Z,11.36
2018-09-28T05:34:36.897Z,11.41
2018-09-28T05:35:36.886Z,11.32
2018-09-28T05:36:36.367Z,11.43
2018-09-28T05:37:36.355Z,11.43
2018-09-28T05:38:36.604Z,11.41
2018-09-28T05:39:36.745Z,11.43
2018-09-28T05:40:36.346Z,11.41
2018-09-28T05:41:36.617Z,11.37
2018-09-28T05:42:36.857Z,11.41
2018-09-28T05:43:36.881Z,11.4
2018-09-28T05:44:36.588Z,11.47
2018-09-28T05:45:36.572Z,11.45
2018-09-28T05:46:36.314Z,11.45
2018-09-28T05:47:36.571Z,11.52
2018-09-28T05:48:36.585Z,11.54
2018-09-28T05:49:36.834Z,11.52
2018-09-28T05:50:36.564Z,11.48
2018-09-28T05:51:37.083Z,11.65
2018-09-28T05:52:36.824Z,11.6
2018-09-28T05:53:36.536Z,11.6
2018-09-28T05:54:36.825Z,11.57
2018-09-28T05:55:36.531Z,11.59
2018-09-28T05:56:36.271Z,11.52
2018-09-28T05:57:36.531Z,11.62
2018-09-28T05:58:36.958Z,11.59
2018-09-28T05:59:36.530Z,11.57
2018-09-28T06:00:36.776Z,11.63
2018-09-28T06:01:36.528Z,11.62
2018-09-28T06:02:36.778Z,11.62
2018-09-28T06:03:36.787Z,11.62
2018-09-28T06:04:36.745Z,11.68
2018-09-28T06:05:37.142Z,11.66
2018-09-28T06:06:36.509Z,11.8
2018-09-28T06:07:36.488Z,11.77
2018-09-28T06:08:36.480Z,11.73
2018-09-28T06:09:36.478Z,11.72
2018-09-28T06:10:36.473Z,11.78
2018-09-28T06:11:36.476Z,11.78
2018-09-28T06:12:36.479Z,11.75
2018-09-28T06:13:36.721Z,11.86
2018-09-28T06:14:36.710Z,11.83
2018-09-28T06:15:36.451Z,11.91
2018-09-28T06:16:36.704Z,11.99
2018-09-28T06:17:36.473Z,11.95
2018-09-28T06:18:36.548Z,12
2018-09-28T06:19:36.421Z,11.99
2018-09-28T06:20:36.446Z,12.02
2018-09-28T06:21:36.452Z,12.02
2018-09-28T06:22:36.438Z,12.06
2018-09-28T06:23:36.688Z,12.15
2018-09-28T06:24:36.159Z,12.1
2018-09-28T06:25:36.664Z,12.17
2018-09-28T06:26:36.414Z,12.25
2018-09-28T06:27:36.661Z,12.35
2018-09-28T06:28:36.670Z,12.31
2018-09-28T06:29:36.134Z,12.39
2018-09-28T06:30:36.639Z,12.35
2018-09-28T06:31:36.139Z,12.36
2018-09-28T06:32:36.386Z,12.4
2018-09-28T06:33:36.639Z,12.47
2018-09-28T06:34:36.369Z,12.45
2018-09-28T06:35:36.829Z,12.45
2018-09-28T06:36:36.634Z,12.49
2018-09-28T06:37:36.361Z,12.46
2018-09-28T06:38:36.619Z,12.47
2018-09-28T06:39:36.108Z,12.49
2018-09-28T06:40:36.618Z,12.5
2018-09-28T06:41:36.615Z,12.5
2018-09-28T06:42:36.754Z,12.53
2018-09-28T06:43:36.345Z,12.61
2018-09-28T06:44:36.656Z,12.65
2018-09-28T06:45:36.337Z,12.68
2018-09-28T06:46:36.606Z,12.76
2018-09-28T06:47:36.335Z,12.67
2018-09-28T06:48:36.335Z,12.7
2018-09-28T06:49:36.329Z,12.73
2018-09-28T06:50:36.326Z,12.8
2018-09-28T06:51:36.333Z,12.86
2018-09-28T06:52:36.315Z,12.94
2018-09-28T06:53:36.589Z,12.95
2018-09-28T06:54:36.349Z,12.91
2018-09-28T06:55:36.314Z,13
2018-09-28T06:56:36.577Z,13.08
2018-09-28T06:57:36.570Z,13.23
2018-09-28T06:58:36.044Z,13.27
2018-09-28T06:59:36.302Z,13.44
2018-09-28T07:00:36.554Z,13.78
2018-09-28T07:01:36.288Z,14.15
2018-09-28T07:02:36.291Z,14.58
2018-09-28T07:03:36.549Z,15.14
2018-09-28T07:04:36.290Z,15.62
2018-09-28T07:05:36.540Z,15.97
2018-09-28T07:06:36.289Z,16.41
2018-09-28T07:07:36.278Z,16.9
2018-09-28T07:08:36.560Z,17.33
2018-09-28T07:09:36.709Z,17.7
2018-09-28T07:10:36.537Z,18.03
2018-09-28T07:11:36.018Z,18.38
2018-09-28T07:12:36.580Z,18.68
2018-09-28T07:13:36.291Z,18.81
2018-09-28T07:14:36.283Z,18.99
2018-09-28T07:15:36.530Z,19.11
2018-09-28T07:16:36.618Z,19.24
2018-09-28T07:17:36.029Z,19.45
2018-09-28T07:18:36.538Z,19.49
2018-09-28T07:19:36.296Z,19.79
2018-09-28T07:20:36.296Z,19.96
2018-09-28T07:21:36.034Z,20.06
2018-09-28T07:22:36.559Z,20.25
2018-09-28T07:23:36.307Z,20.34
2018-09-28T07:24:36.448Z,20.44
2018-09-28T07:25:36.591Z,20.66
2018-09-28T07:26:36.054Z,20.72
2018-09-28T07:27:36.563Z,20.97
2018-09-28T07:28:36.326Z,21.25
2018-09-28T07:29:36.574Z,21.42
2018-09-28T07:30:36.579Z,21.55
2018-09-28T07:31:36.591Z,21.62
2018-09-28T07:32:36.327Z,21.48
2018-09-28T07:33:37.688Z,21.48
2018-09-28T07:34:36.079Z,21.29
2018-09-28T07:35:36.328Z,21.09
2018-09-28T07:36:37.366Z,21.02
2018-09-28T07:37:36.635Z,21.06
2018-09-28T07:38:36.351Z,21.11
2018-09-28T07:39:36.341Z,21.09
2018-09-28T07:40:36.356Z,21.12
2018-09-28T07:41:36.360Z,21.35
2018-09-28T07:42:36.366Z,21.52
2018-09-28T07:43:36.113Z,21.73
2018-09-28T07:44:36.619Z,21.83
2018-09-28T07:45:36.366Z,21.96
2018-09-28T07:46:36.640Z,22.07
2018-09-28T07:47:36.638Z,22.18
2018-09-28T07:48:36.627Z,22.28
2018-09-28T07:49:36.663Z,22.41
2018-09-28T07:50:36.134Z,22.45
2018-09-28T07:51:36.403Z,22.5
2018-09-28T07:52:36.655Z,22.48
2018-09-28T07:53:36.403Z,22.66
2018-09-28T07:54:36.403Z,22.76
2018-09-28T07:55:36.443Z,22.88
2018-09-28T07:56:36.410Z,22.99
2018-09-28T07:57:36.418Z,22.94
2018-09-28T07:58:36.693Z,22.91
2018-09-28T07:59:36.433Z,22.91
2018-09-28T08:00:36.440Z,23.06
2018-09-28T08:01:36.695Z,23.15
2018-09-28T08:02:36.727Z,23.36
2018-09-28T08:03:36.207Z,23.46
2018-09-28T08:04:36.704Z,23.48
2018-09-28T08:05:36.741Z,23.43
2018-09-28T08:06:36.464Z,23.12
2018-09-28T08:07:36.483Z,22.62
2018-09-28T08:08:36.471Z,22.11
2018-09-28T08:09:36.501Z,21.48
2018-09-28T08:10:36.471Z,21.05
2018-09-28T08:11:36.479Z,20.5
2018-09-28T08:12:36.507Z,20.09
2018-09-28T08:13:36.525Z,19.76
2018-09-28T08:14:36.504Z,19.41
2018-09-28T08:15:36.777Z,19.21
2018-09-28T08:16:36.514Z,19.04
2018-09-28T08:17:36.768Z,18.84
2018-09-28T08:18:36.525Z,18.66
2018-09-28T08:19:36.550Z,18.56
2018-09-28T08:20:36.281Z,18.41
2018-09-28T08:21:36.531Z,18.31
2018-09-28T08:22:36.789Z,18.31
2018-09-28T08:23:36.803Z,18.28
2018-09-28T08:24:36.581Z,18.26
2018-09-28T08:25:36.531Z,18.2
2018-09-28T08:26:36.548Z,18.16
2018-09-28T08:27:36.538Z,18.11
2018-09-28T08:28:36.795Z,18.15
2018-09-28T08:29:36.555Z,18.16
2018-09-28T08:30:37.150Z,18.15
2018-09-28T08:31:36.545Z,18.13
2018-09-28T08:32:36.547Z,18.15
2018-09-28T08:33:36.577Z,18.13
2018-09-28T08:34:36.298Z,18.18
2018-09-28T08:35:36.577Z,18.11
2018-09-28T08:36:36.744Z,18.08
2018-09-28T08:37:36.563Z,18.19
2018-09-28T08:38:36.818Z,18.31
2018-09-28T08:39:36.563Z,18.41
2018-09-28T08:40:36.570Z,18.41
2018-09-28T08:41:36.356Z,18.44
2018-09-28T08:42:36.561Z,18.5
2018-09-28T08:43:36.994Z,18.59
2018-09-28T08:44:36.589Z,18.55
2018-09-28T08:45:36.829Z,18.62
2018-09-28T08:46:36.559Z,18.47
2018-09-28T08:47:36.571Z,18.47
2018-09-28T08:48:36.567Z,18.56
2018-09-28T08:49:36.839Z,18.65
2018-09-28T08:50:36.846Z,18.66
2018-09-28T08:51:36.317Z,18.83
2018-09-28T08:52:36.568Z,18.86
2018-09-28T08:53:36.832Z,18.95
2018-09-28T08:54:36.862Z,18.99
2018-09-28T08:55:36.843Z,19.11
2018-09-28T08:56:36.581Z,19.15
2018-09-28T08:57:36.831Z,19.21
2018-09-28T08:58:36.570Z,19.26
2018-09-28T08:59:36.617Z,19.18
2018-09-28T09:00:36.577Z,19.14
2018-09-28T09:01:36.886Z,18.98
2018-09-28T09:02:36.590Z,18.98
2018-09-28T09:03:36.856Z,18.95
2018-09-28T09:04:36.594Z,18.99
2018-09-28T09:05:36.595Z,18.95
2018-09-28T09:06:36.593Z,18.99
2018-09-28T09:07:36.866Z,18.98
2018-09-28T09:08:36.615Z,18.96
2018-09-28T09:09:36.869Z,18.89
2018-09-28T09:10:36.884Z,18.81
2018-09-28T09:11:36.855Z,18.78
2018-09-28T09:12:36.673Z,18.75
2018-09-28T09:13:36.611Z,18.7
2018-09-28T09:14:36.883Z,18.65
2018-09-28T09:15:36.609Z,18.63
2018-09-28T09:16:36.871Z,18.74
2018-09-28T09:17:36.599Z,18.65
2018-09-28T09:18:36.359Z,18.65
2018-09-28T09:19:36.875Z,18.71
2018-09-28T09:20:36.610Z,18.73
2018-09-28T09:21:36.863Z,18.74
2018-09-28T09:22:36.864Z,18.7
2018-09-28T09:23:36.352Z,18.83
2018-09-28T09:24:36.612Z,18.9
2018-09-28T09:25:36.630Z,19
2018-09-28T09:26:36.364Z,19.02
2018-09-28T09:27:36.627Z,19.12
2018-09-28T09:28:36.887Z,19.14
2018-09-28T09:29:36.620Z,19.14
2018-09-28T09:30:36.621Z,19.02
2018-09-28T09:31:36.622Z,19.09
2018-09-28T09:32:36.627Z,19.09
2018-09-28T09:33:36.619Z,19.18
2018-09-28T09:34:36.626Z,19.21
2018-09-28T09:35:36.887Z,19.18
2018-09-28T09:36:36.780Z,19.3
2018-09-28T09:37:36.626Z,19.27
2018-09-28T09:38:36.881Z,19.24
2018-09-28T09:39:36.886Z,19.36
2018-09-28T09:40:36.887Z,19.45
2018-09-28T09:41:36.884Z,19.47
2018-09-28T09:42:36.779Z,19.47
2018-09-28T09:43:36.629Z,19.58
2018-09-28T09:44:36.630Z,19.64
2018-09-28T09:45:36.630Z,19.47
2018-09-28T09:46:36.634Z,19.47
2018-09-28T09:47:36.634Z,19.49
2018-09-28T09:48:36.732Z,19.41
2018-09-28T09:49:36.900Z,19.45
2018-09-28T09:50:36.901Z,19.45
2018-09-28T09:51:36.645Z,19.47
2018-09-28T09:52:36.639Z,19.63
2018-09-28T09:53:36.643Z,19.69
2018-09-28T09:54:36.911Z,19.67
2018-09-28T09:55:36.651Z,19.88
2018-09-28T09:56:36.913Z,19.77
2018-09-28T09:57:37.001Z,19.79
2018-09-28T09:58:36.974Z,19.77
2018-09-28T09:59:36.908Z,19.73
2018-09-28T10:00:36.717Z,19.66
2018-09-28T10:01:36.750Z,19.77
2018-09-28T10:02:36.915Z,19.85
2018-09-28T10:03:36.673Z,19.79
2018-09-28T10:04:37.090Z,19.95
2018-09-28T10:05:36.653Z,19.92
2018-09-28T10:06:36.432Z,20.03
2018-09-28T10:07:36.661Z,20.04
2018-09-28T10:08:36.663Z,20.24
2018-09-28T10:09:36.982Z,20.32
2018-09-28T10:10:36.667Z,20.39
2018-09-28T10:11:36.662Z,20.31
2018-09-28T10:12:36.987Z,20.26
2018-09-28T10:13:36.666Z,20.22
2018-09-28T10:14:36.931Z,20.16
2018-09-28T10:15:36.941Z,20.06
2018-09-28T10:16:36.427Z,20.18
2018-09-28T10:17:36.940Z,20.36
2018-09-28T10:18:36.680Z,20.29
2018-09-28T10:19:36.725Z,20.36
2018-09-28T10:20:36.677Z,20.58
2018-09-28T10:21:36.682Z,20.52
2018-09-28T10:22:36.948Z,20.52
2018-09-28T10:23:36.972Z,20.63
2018-09-28T10:24:36.927Z,20.56
2018-09-28T10:25:36.942Z,20.6
2018-09-28T10:26:36.685Z,20.58
2018-09-28T10:27:37.171Z,20.5
2018-09-28T10:28:36.846Z,20.43
2018-09-28T10:29:36.971Z,20.47
2018-09-28T10:30:36.692Z,20.41
2018-09-28T10:31:36.687Z,20.4
2018-09-28T10:32:36.953Z,20.37
2018-09-28T10:33:37.182Z,20.34
2018-09-28T10:34:37.088Z,20.4
2018-09-28T10:35:36.975Z,20.41
2018-09-28T10:36:36.758Z,20.43
2018-09-28T10:37:36.706Z,20.58
2018-09-28T10:38:36.714Z,20.55
2018-09-28T10:39:36.782Z,20.56
2018-09-28T10:40:37.226Z,20.47
2018-09-28T10:41:36.731Z,20.6
2018-09-28T10:42:36.958Z,20.56
2018-09-28T10:43:36.985Z,20.52
2018-09-28T10:44:36.977Z,20.62
2018-09-28T10:45:37.106Z,20.72
2018-09-28T10:46:36.880Z,20.77
2018-09-28T10:47:37.003Z,20.74
2018-09-28T10:48:37.007Z,20.8
2018-09-28T10:49:36.483Z,20.81
2018-09-28T10:50:36.739Z,20.74
2018-09-28T10:51:37.173Z,20.8
2018-09-28T10:52:37.483Z,20.81
2018-09-28T10:53:37.005Z,20.85
2018-09-28T10:54:36.739Z,20.9
2018-09-28T10:55:36.999Z,20.95
2018-09-28T10:56:36.746Z,20.8
2018-09-28T10:57:36.758Z,20.85
2018-09-28T10:58:37.350Z,20.82
2018-09-28T10:59:37.013Z,21
2018-09-28T11:00:36.489Z,20.93
2018-09-28T11:01:37.039Z,21.05
2018-09-28T11:02:37.030Z,21.09
2018-09-28T11:03:36.533Z,21.11
2018-09-28T11:04:36.821Z,21.07
2018-09-28T11:05:37.040Z,21.09
2018-09-28T11:06:36.759Z,21.11
2018-09-28T11:07:37.052Z,21.21
2018-09-28T11:08:37.056Z,21.21
2018-09-28T11:09:36.944Z,21.29
2018-09-28T11:10:37.205Z,21.24
2018-09-28T11:11:37.040Z,21.25
2018-09-28T11:12:36.773Z,21.22
2018-09-28T11:13:36.774Z,21.24
2018-09-28T11:14:37.153Z,21.22
2018-09-28T11:15:37.155Z,21.33
2018-09-28T11:16:37.037Z,21.4
2018-09-28T11:17:37.052Z,21.37
2018-09-28T11:18:37.032Z,21.48
2018-09-28T11:19:37.069Z,21.5
2018-09-28T11:20:36.526Z,21.54
2018-09-28T11:21:37.152Z,21.52
2018-09-28T11:22:37.051Z,21.57
2018-09-28T11:23:37.064Z,21.55
2018-09-28T11:24:37.044Z,21.57
2018-09-28T11:25:36.789Z,21.5
2018-09-28T11:26:37.151Z,21.5
2018-09-28T11:27:37.191Z,21.48
2018-09-28T11:28:36.807Z,21.37
2018-09-28T11:29:37.089Z,21.4
2018-09-28T11:30:36.791Z,21.37
2018-09-28T11:31:36.809Z,21.46
2018-09-28T11:32:36.804Z,21.45
2018-09-28T11:33:36.902Z,21.51
2018-09-28T11:34:38.658Z,21.6
2018-09-28T11:35:37.066Z,21.55
2018-09-28T11:36:36.549Z,21.64
2018-09-28T11:37:37.226Z,21.67
2018-09-28T11:38:37.095Z,21.75
2018-09-28T11:39:36.888Z,21.72
2018-09-28T11:40:37.100Z,21.77
2018-09-28T11:41:36.816Z,21.77
2018-09-28T11:42:36.825Z,21.75
2018-09-28T11:43:37.100Z,21.83
2018-09-28T11:44:36.824Z,21.88
2018-09-28T11:45:36.903Z,21.95
2018-09-28T11:46:37.085Z,21.96
2018-09-28T11:47:37.106Z,21.82
2018-09-28T11:48:37.109Z,21.7
2018-09-28T11:49:37.135Z,21.66
2018-09-28T11:50:36.840Z,21.55
2018-09-28T11:51:36.985Z,21.55
2018-09-28T11:52:37.129Z,21.55
2018-09-28T11:53:37.107Z,21.61
2018-09-28T11:54:36.842Z,21.6
2018-09-28T11:55:37.138Z,21.62
2018-09-28T11:56:36.855Z,21.64
2018-09-28T11:57:36.968Z,21.62
2018-09-28T11:58:36.598Z,21.61
2018-09-28T11:59:37.122Z,21.6
2018-09-28T12:00:37.126Z,21.57
2018-09-28T12:01:36.598Z,21.55
2018-09-28T12:02:36.885Z,21.55
2018-09-28T12:03:36.929Z,21.6
2018-09-28T12:04:37.147Z,21.64
2018-09-28T12:05:36.610Z,21.55
2018-09-28T12:06:37.796Z,21.6
2018-09-28T12:07:36.883Z,21.61
2018-09-28T12:08:37.145Z,21.57
2018-09-28T12:09:37.349Z,21.69
2018-09-28T12:10:36.868Z,21.64
2018-09-28T12:11:36.893Z,21.7
2018-09-28T12:12:37.257Z,21.88
2018-09-28T12:13:37.097Z,21.89
2018-09-28T12:14:36.887Z,21.96
2018-09-28T12:15:37.322Z,21.99
2018-09-28T12:16:36.911Z,21.89
2018-09-28T12:17:37.169Z,21.93
2018-09-28T12:18:36.692Z,21.99
2018-09-28T12:19:37.712Z,21.95
2018-09-28T12:20:36.898Z,21.85
2018-09-28T12:21:37.022Z,21.76
2018-09-28T12:22:36.652Z,21.83
2018-09-28T12:23:36.909Z,21.82
2018-09-28T12:24:37.330Z,21.85
2018-09-28T12:25:36.908Z,21.85
2018-09-28T12:26:36.910Z,21.89
2018-09-28T12:27:36.704Z,21.89
2018-09-28T12:28:36.653Z,21.88
2018-09-28T12:29:36.926Z,21.91
2018-09-28T12:30:36.722Z,21.89
2018-09-28T12:31:36.938Z,21.93
2018-09-28T12:32:36.942Z,21.82
2018-09-28T12:33:37.368Z,21.91
2018-09-28T12:34:36.940Z,21.96
2018-09-28T12:35:37.539Z,21.96
2018-09-28T12:36:37.378Z,21.98
2018-09-28T12:37:36.954Z,21.93
2018-09-28T12:38:37.225Z,21.98
2018-09-28T12:39:37.603Z,21.92
2018-09-28T12:40:37.238Z,22
2018-09-28T12:41:37.250Z,22.06
2018-09-28T12:42:37.333Z,22.15
2018-09-28T12:43:40.008Z,22.1
2018-09-28T12:44:37.172Z,22.1
2018-09-28T12:45:37.028Z,22.17
2018-09-28T12:46:36.961Z,22.18
2018-09-28T12:47:37.247Z,22.22
2018-09-28T12:48:37.136Z,22.26
2018-09-28T12:49:37.229Z,22.23
2018-09-28T12:50:37.365Z,22.2
2018-09-28T12:51:36.959Z,22.13
2018-09-28T12:52:37.014Z,22.08
2018-09-28T12:53:37.087Z,21.98
2018-09-28T12:54:37.077Z,21.99
2018-09-28T12:55:36.995Z,21.99
2018-09-28T12:56:37.095Z,22
2018-09-28T12:57:37.248Z,21.91